createdAt,value
2022-08-03T00:00:44.304Z,98441.72
2022-08-03T00:03:13.591Z,98446.00
2022-08-03T00:06:03.724Z,98435.53
2022-08-03T00:08:32.027Z,98432.13
2022-08-03T00:11:01.459Z,98431.47
2022-08-03T00:13:32.100Z,98430.22
2022-08-03T00:16:01.332Z,98428.31
2022-08-03T00:18:30.519Z,98427.00
2022-08-03T00:20:59.765Z,98429.25
2022-08-03T00:23:50.914Z,98433.88
2022-08-03T00:26:18.170Z,98432.81
2022-08-03T00:28:49.047Z,98432.81
2022-08-03T00:31:23.129Z,98433.66
2022-08-03T00:34:07.942Z,98428.59
2022-08-03T00:36:37.642Z,98429.25
2022-08-03T00:39:06.866Z,98437.72
2022-08-03T00:41:36.066Z,98439.84
2022-08-03T00:44:06.862Z,98438.59
2022-08-03T00:46:36.079Z,98450.25
2022-08-03T00:49:05.372Z,98447.03
2022-08-03T00:51:35.532Z,98444.88
2022-08-03T00:54:04.893Z,98445.28
2022-08-03T00:56:34.076Z,98448.13
2022-08-03T00:59:04.635Z,98441.25
2022-08-03T01:01:35.598Z,98444.44
2022-08-03T01:04:05.160Z,98446.44
2022-08-03T01:06:44.628Z,98437.75
2022-08-03T01:09:23.765Z,98444.44
2022-08-03T01:12:04.638Z,98442.28
2022-08-03T01:14:40.209Z,98440.25
2022-08-03T01:17:20.758Z,98444.81
2022-08-03T01:19:59.438Z,98434.78
2022-08-03T01:23:11.809Z,98441.16
2022-08-03T01:26:01.318Z,98432.06
2022-08-03T01:29:03.844Z,98439.44
2022-08-03T01:32:53.304Z,98434.78
2022-08-03T01:34:38.007Z,98434.78
2022-08-03T01:37:12.131Z,98437.91
2022-08-03T01:39:44.018Z,98431.88
2022-08-03T01:42:15.397Z,98428.47
2022-08-03T01:44:46.913Z,98431.75
2022-08-03T01:47:21.241Z,98429.72
2022-08-03T01:49:52.824Z,98429.03
2022-08-03T01:52:23.622Z,98430.41
2022-08-03T01:54:54.976Z,98427.28
2022-08-03T01:57:26.622Z,98432.97
2022-08-03T01:59:58.510Z,98431.16
2022-08-03T02:02:34.074Z,98431.91
2022-08-03T02:05:10.782Z,98437.88
2022-08-03T02:07:43.688Z,98423.06
2022-08-03T02:10:17.220Z,98427.97
2022-08-03T02:13:08.667Z,98422.28
2022-08-03T02:15:39.647Z,98430.47
2022-08-03T02:18:11.523Z,98429.34
2022-08-03T02:20:44.299Z,98426.16
2022-08-03T02:23:14.011Z,98421.59
2022-08-03T02:25:47.960Z,98425.97
2022-08-03T02:28:21.682Z,98422.13
2022-08-03T02:30:56.857Z,98423.44
2022-08-03T02:33:32.917Z,98420.81
2022-08-03T02:36:03.943Z,98419.78
2022-08-03T02:38:37.340Z,98420.94
2022-08-03T02:41:13.199Z,98418.78
2022-08-03T02:44:06.696Z,98424.72
2022-08-03T02:46:38.577Z,98420.06
2022-08-03T02:49:40.929Z,98423.25
2022-08-03T02:52:02.971Z,98429.28
2022-08-03T02:54:33.949Z,98425.28
2022-08-03T02:57:03.896Z,98430.47
2022-08-03T02:59:34.795Z,98423.00
2022-08-03T03:02:04.970Z,98434.13
2022-08-03T03:04:36.864Z,98429.19
2022-08-03T03:07:06.562Z,98434.88
2022-08-03T03:09:41.640Z,98434.75
2022-08-03T03:12:15.167Z,98430.66
2022-08-03T03:14:44.605Z,98438.22
2022-08-03T03:17:16.453Z,98434.88
2022-08-03T03:19:48.414Z,98445.47
2022-08-03T03:22:19.006Z,98440.72
2022-08-03T03:24:49.862Z,98436.41
2022-08-03T03:27:19.663Z,98435.03
2022-08-03T03:29:51.278Z,98438.22
2022-08-03T03:32:20.709Z,98438.72
2022-08-03T03:34:52.154Z,98444.28
2022-08-03T03:37:21.401Z,98445.75
2022-08-03T03:39:50.892Z,98443.72
2022-08-03T03:42:20.385Z,98441.78
2022-08-03T03:44:49.545Z,98440.44
2022-08-03T03:47:32.280Z,98443.53
2022-08-03T03:50:05.140Z,98452.00
2022-08-03T03:52:35.103Z,98442.19
2022-08-03T03:55:04.539Z,98449.19
2022-08-03T03:57:35.286Z,98447.19
2022-08-03T04:00:06.225Z,98450.56
2022-08-03T04:02:35.506Z,98458.13
2022-08-03T04:05:25.161Z,98453.88
2022-08-03T04:08:18.005Z,98456.38
2022-08-03T04:11:01.721Z,98462.97
2022-08-03T04:13:35.368Z,98458.78
2022-08-03T04:16:09.203Z,98459.13
2022-08-03T04:18:41.463Z,98456.63
2022-08-03T04:21:16.388Z,98471.50
2022-08-03T04:23:49.916Z,98471.28
2022-08-03T04:26:23.396Z,98471.63
2022-08-03T04:28:53.978Z,98473.56
2022-08-03T04:31:25.682Z,98474.09
2022-08-03T04:33:56.237Z,98477.13
2022-08-03T04:36:32.597Z,98478.59
2022-08-03T04:39:06.674Z,98484.72
2022-08-03T04:42:06.936Z,98478.47
2022-08-03T04:44:29.806Z,98477.41
2022-08-03T04:47:00.814Z,98485.50
2022-08-03T04:49:32.056Z,98485.56
2022-08-03T04:52:03.000Z,98493.31
2022-08-03T04:54:32.661Z,98492.91
2022-08-03T04:57:01.932Z,98490.91
2022-08-03T04:59:31.195Z,98496.81
2022-08-03T05:02:00.508Z,98494.00
2022-08-03T05:04:29.916Z,98492.31
2022-08-03T05:06:59.330Z,98500.75
2022-08-03T05:09:50.467Z,98500.16
2022-08-03T05:12:21.772Z,98500.19
2022-08-03T05:14:51.107Z,98505.53
2022-08-03T05:17:20.733Z,98508.25
2022-08-03T05:19:50.101Z,98509.03
2022-08-03T05:22:19.389Z,98505.09
2022-08-03T05:24:50.026Z,98513.03
2022-08-03T05:27:20.301Z,98516.81
2022-08-03T05:29:51.200Z,98519.53
2022-08-03T05:32:20.993Z,98521.41
2022-08-03T05:34:50.429Z,98526.47
2022-08-03T05:37:19.665Z,98513.47
2022-08-03T05:39:50.407Z,98523.91
2022-08-03T05:42:19.551Z,98515.00
2022-08-03T05:44:48.814Z,98518.44
2022-08-03T05:47:18.192Z,98513.38
2022-08-03T05:49:47.643Z,98524.16
2022-08-03T05:52:17.018Z,98532.06
2022-08-03T05:54:57.491Z,98525.38
2022-08-03T05:57:28.479Z,98525.66
2022-08-03T05:59:58.713Z,98527.31
2022-08-03T06:02:28.639Z,98522.03
2022-08-03T06:04:57.767Z,98523.31
2022-08-03T06:07:27.080Z,98523.25
2022-08-03T06:10:34.023Z,98522.91
2022-08-03T06:12:49.423Z,98524.72
2022-08-03T06:15:19.878Z,98525.94
2022-08-03T06:17:50.001Z,98534.16
2022-08-03T06:20:21.729Z,98532.28
2022-08-03T06:23:00.279Z,98533.44
2022-08-03T06:25:31.018Z,98535.28
2022-08-03T06:28:01.570Z,98538.53
2022-08-03T06:30:30.864Z,98536.09
2022-08-03T06:32:59.993Z,98541.34
2022-08-03T06:35:29.402Z,98544.44
2022-08-03T06:37:58.719Z,98541.16
2022-08-03T06:40:31.344Z,98543.47
2022-08-03T06:43:04.150Z,98548.50
2022-08-03T06:45:34.392Z,98543.97
2022-08-03T06:48:06.231Z,98544.72
2022-08-03T06:50:38.357Z,98545.91
2022-08-03T06:53:09.129Z,98547.47
2022-08-03T06:55:51.108Z,98551.19
2022-08-03T06:58:24.838Z,98546.75
2022-08-03T07:00:54.805Z,98546.63
2022-08-03T07:03:26.069Z,98557.97
2022-08-03T07:05:55.374Z,98556.34
2022-08-03T07:08:34.232Z,98554.25
2022-08-03T07:11:03.986Z,98557.09
2022-08-03T07:13:35.054Z,98563.53
2022-08-03T07:16:04.366Z,98561.63
2022-08-03T07:18:33.489Z,98555.78
2022-08-03T07:21:02.710Z,98566.56
2022-08-03T07:23:32.081Z,98560.59
2022-08-03T07:26:01.345Z,98558.34
2022-08-03T07:28:30.729Z,98565.75
2022-08-03T07:31:01.434Z,98562.97
2022-08-03T07:33:30.782Z,98565.09
2022-08-03T07:36:00.094Z,98567.75
2022-08-03T07:38:30.050Z,98564.50
2022-08-03T07:40:59.399Z,98572.38
2022-08-03T07:43:28.890Z,98568.50
2022-08-03T07:46:00.709Z,98566.16
2022-08-03T07:48:31.477Z,98566.44
2022-08-03T07:51:00.679Z,98569.13
2022-08-03T07:53:29.935Z,98568.88
2022-08-03T07:55:59.204Z,98573.56
2022-08-03T07:58:29.903Z,98564.22
2022-08-03T08:00:59.239Z,98577.13
2022-08-03T08:03:28.466Z,98570.09
2022-08-03T08:06:19.325Z,98572.72
2022-08-03T08:08:48.839Z,98570.16
2022-08-03T08:11:18.005Z,98572.50
2022-08-03T08:13:47.217Z,98575.66
2022-08-03T08:16:16.830Z,98581.16
2022-08-03T08:18:46.005Z,98569.66
2022-08-03T08:21:15.274Z,98576.78
2022-08-03T08:23:51.779Z,98579.69
2022-08-03T08:26:27.411Z,98575.75
2022-08-03T08:28:56.949Z,98583.38
2022-08-03T08:31:26.180Z,98581.28
2022-08-03T08:34:04.310Z,98579.69
2022-08-03T08:36:35.683Z,98578.13
2022-08-03T08:39:06.476Z,98577.34
2022-08-03T08:41:35.823Z,98581.25
2022-08-03T08:44:08.307Z,98574.69
2022-08-03T08:46:39.763Z,98575.41
2022-08-03T08:49:12.304Z,98572.25
2022-08-03T08:51:59.536Z,98569.34
2022-08-03T08:54:34.176Z,98577.19
2022-08-03T08:57:21.112Z,98569.00
2022-08-03T08:59:57.442Z,98575.72
2022-08-03T09:02:28.843Z,98575.66
2022-08-03T09:04:59.836Z,98563.81
2022-08-03T09:07:31.214Z,98570.81
2022-08-03T09:10:11.182Z,98567.75
2022-08-03T09:12:45.947Z,98563.97
2022-08-03T09:15:21.404Z,98561.84
2022-08-03T09:17:52.135Z,98566.00
2022-08-03T09:20:22.725Z,98565.91
2022-08-03T09:22:59.055Z,98565.31
2022-08-03T09:25:31.907Z,98565.84
2022-08-03T09:28:12.330Z,98570.78
2022-08-03T09:30:44.163Z,98565.47
2022-08-03T09:33:16.521Z,98558.59
2022-08-03T09:35:54.054Z,98555.00
2022-08-03T09:38:26.433Z,98558.34
2022-08-03T09:41:00.946Z,98554.66
2022-08-03T09:43:46.949Z,98557.16
2022-08-03T09:46:16.234Z,98552.00
2022-08-03T09:48:46.092Z,98549.66
2022-08-03T09:52:31.285Z,98554.78
2022-08-03T09:54:09.610Z,98552.66
2022-08-03T09:56:48.542Z,98550.28
2022-08-03T09:59:26.630Z,98543.22
2022-08-03T10:01:56.885Z,98541.75
2022-08-03T10:04:27.091Z,98540.63
2022-08-03T10:07:08.389Z,98537.81
2022-08-03T10:09:38.549Z,98536.63
2022-08-03T10:12:14.633Z,98528.13
2022-08-03T10:14:45.786Z,98532.56
2022-08-03T10:17:15.495Z,98532.63
2022-08-03T10:19:44.953Z,98523.00
2022-08-03T10:22:16.826Z,98533.03
2022-08-03T10:24:54.973Z,98524.78
2022-08-03T10:27:26.393Z,98524.16
2022-08-03T10:30:02.982Z,98526.03
2022-08-03T10:32:36.080Z,98514.56
2022-08-03T10:35:20.096Z,98511.88
2022-08-03T10:37:59.204Z,98514.22
2022-08-03T10:40:49.546Z,98511.34
2022-08-03T10:43:24.202Z,98501.06
2022-08-03T10:45:53.542Z,98504.88
2022-08-03T10:48:23.627Z,98504.03
2022-08-03T10:50:53.584Z,98498.56
2022-08-03T10:53:37.452Z,98496.31
2022-08-03T10:56:36.837Z,98497.78
2022-08-03T10:59:28.003Z,98499.78
2022-08-03T11:02:00.692Z,98502.13
2022-08-03T11:04:30.923Z,98493.59
2022-08-03T11:07:23.739Z,98494.81
2022-08-03T11:09:54.929Z,98486.47
2022-08-03T11:12:28.319Z,98485.06
2022-08-03T11:15:08.899Z,98483.03
2022-08-03T11:17:46.679Z,98480.88
2022-08-03T11:20:47.539Z,98485.81
2022-08-03T11:23:20.147Z,98484.84
2022-08-03T11:26:21.370Z,98489.13
2022-08-03T11:28:52.717Z,98479.16
2022-08-03T11:31:51.919Z,98488.56
2022-08-03T11:34:21.339Z,98483.81
2022-08-03T11:37:26.367Z,98479.16
2022-08-03T11:39:59.313Z,98484.06
2022-08-03T11:42:50.839Z,98474.28
2022-08-03T11:45:20.351Z,98465.91
2022-08-03T11:47:55.109Z,98474.34
2022-08-03T11:50:24.559Z,98478.97
2022-08-03T11:52:53.986Z,98471.94
2022-08-03T11:55:24.333Z,98466.28
2022-08-03T11:59:18.754Z,98468.66
2022-08-03T12:00:52.034Z,98454.84
2022-08-03T12:03:22.874Z,98448.44
2022-08-03T12:05:54.709Z,98441.94
2022-08-03T12:08:35.104Z,98439.66
2022-08-03T12:11:07.143Z,98443.78
2022-08-03T12:14:45.435Z,98443.75
2022-08-03T12:16:34.147Z,98441.97
2022-08-03T12:19:08.260Z,98439.63
2022-08-03T12:21:55.826Z,98440.09
2022-08-03T12:24:29.584Z,98431.41
2022-08-03T12:27:00.008Z,98432.78
2022-08-03T12:29:29.599Z,98435.06
2022-08-03T12:31:58.973Z,98437.56
2022-08-03T12:34:50.992Z,98434.31
2022-08-03T12:37:22.745Z,98433.13
2022-08-03T12:40:00.879Z,98428.38
2022-08-03T12:42:34.988Z,98426.06
2022-08-03T12:45:23.351Z,98426.00
2022-08-03T12:47:55.154Z,98423.81
2022-08-03T12:50:34.957Z,98422.00
2022-08-03T12:53:08.882Z,98415.25
2022-08-03T12:56:04.710Z,98421.03
2022-08-03T12:58:35.121Z,98421.69
2022-08-03T13:01:10.115Z,98419.53
2022-08-03T13:03:50.443Z,98405.47
2022-08-03T13:06:26.600Z,98407.16
2022-08-03T13:09:07.512Z,98394.03
2022-08-03T13:11:55.798Z,98395.66
2022-08-03T13:14:27.050Z,98388.84
2022-08-03T13:16:56.347Z,98377.53
2022-08-03T13:19:25.588Z,98376.84
2022-08-03T13:22:03.943Z,98378.84
2022-08-03T13:24:35.118Z,98379.06
2022-08-03T13:28:01.698Z,98380.50
2022-08-03T13:29:56.458Z,98378.63
2022-08-03T13:32:25.704Z,98374.44
2022-08-03T13:34:54.940Z,98368.38
2022-08-03T13:37:26.249Z,98359.53
2022-08-03T13:39:58.893Z,98361.72
2022-08-03T13:42:31.564Z,98361.22
2022-08-03T13:45:01.773Z,98364.69
2022-08-03T13:47:31.234Z,98366.38
2022-08-03T13:50:02.887Z,98364.13
2022-08-03T13:52:36.232Z,98363.56
2022-08-03T13:55:08.162Z,98367.00
2022-08-03T13:58:03.396Z,98358.50
2022-08-03T14:00:29.487Z,98357.00
2022-08-03T14:03:09.258Z,98348.69
2022-08-03T14:05:42.424Z,98359.03
2022-08-03T14:08:13.427Z,98358.84
2022-08-03T14:10:45.167Z,98353.38
2022-08-03T14:13:16.838Z,98348.34
2022-08-03T14:15:50.898Z,98347.84
2022-08-03T14:18:29.323Z,98345.22
2022-08-03T14:21:06.758Z,98340.44
2022-08-03T14:23:38.795Z,98336.00
2022-08-03T14:26:09.095Z,98339.25
2022-08-03T14:28:38.330Z,98329.41
2022-08-03T14:31:15.352Z,98323.09
2022-08-03T14:33:57.384Z,98320.34
2022-08-03T14:36:26.658Z,98306.00
2022-08-03T14:39:01.168Z,98309.63
2022-08-03T14:41:30.791Z,98311.66
2022-08-03T14:44:01.658Z,98310.81
2022-08-03T14:46:32.763Z,98321.13
2022-08-03T14:50:38.328Z,98321.69
2022-08-03T14:51:51.462Z,98321.69
2022-08-03T14:54:24.824Z,98315.09
2022-08-03T14:56:54.013Z,98292.50
2022-08-03T14:59:23.222Z,98295.78
2022-08-03T15:02:04.649Z,98304.41
2022-08-03T15:04:37.408Z,98300.31
2022-08-03T15:07:06.709Z,98294.66
2022-08-03T15:09:38.667Z,98301.09
2022-08-03T15:12:08.738Z,98305.97
2022-08-03T15:14:38.031Z,98308.88
2022-08-03T15:17:08.263Z,98298.78
2022-08-03T15:20:01.174Z,98307.06
2022-08-03T15:22:34.409Z,98291.59
2022-08-03T15:26:28.283Z,98294.41
2022-08-03T15:28:02.945Z,98284.66
2022-08-03T15:30:37.062Z,98299.53
2022-08-03T15:33:07.290Z,98285.06
2022-08-03T15:35:36.956Z,98290.91
2022-08-03T15:38:09.488Z,98293.00
2022-08-03T15:40:40.450Z,98291.78
2022-08-03T15:43:09.706Z,98289.88
2022-08-03T15:45:41.948Z,98293.47
2022-08-03T15:48:11.449Z,98283.78
2022-08-03T15:50:41.064Z,98286.84
2022-08-03T15:53:12.919Z,98283.53
2022-08-03T15:55:44.873Z,98278.81
2022-08-03T15:59:09.239Z,98274.31
2022-08-03T16:01:06.800Z,98263.50
2022-08-03T16:03:36.261Z,98271.66
2022-08-03T16:06:07.550Z,98267.06
2022-08-03T16:08:37.058Z,98261.97
2022-08-03T16:11:07.697Z,98265.28
2022-08-03T16:14:14.140Z,98263.59
2022-08-03T16:16:26.158Z,98261.81
2022-08-03T16:18:55.364Z,98264.69
2022-08-03T16:21:25.613Z,98256.47
2022-08-03T16:24:01.984Z,98255.16
2022-08-03T16:26:36.988Z,98249.56
2022-08-03T16:29:08.538Z,98251.75
2022-08-03T16:31:52.915Z,98249.09
2022-08-03T16:34:22.525Z,98248.44
2022-08-03T16:36:51.992Z,98247.78
2022-08-03T16:39:21.195Z,98238.44
2022-08-03T16:41:54.291Z,98240.78
2022-08-03T16:44:31.871Z,98234.50
2022-08-03T16:47:01.358Z,98226.00
2022-08-03T16:49:53.989Z,98233.66
2022-08-03T16:52:20.035Z,98229.22
2022-08-03T16:54:53.489Z,98226.59
2022-08-03T16:57:59.384Z,98223.91
2022-08-03T17:00:32.874Z,98223.34
2022-08-03T17:03:18.676Z,98227.72
2022-08-03T17:05:51.006Z,98225.16
2022-08-03T17:08:26.507Z,98225.41
2022-08-03T17:10:57.367Z,98231.94
2022-08-03T17:13:39.510Z,98234.19
2022-08-03T17:16:12.209Z,98228.50
2022-08-03T17:18:54.129Z,98232.38
2022-08-03T17:21:29.506Z,98229.13
2022-08-03T17:24:04.799Z,98220.19
2022-08-03T17:26:44.928Z,98224.81
2022-08-03T17:29:23.153Z,98221.47
2022-08-03T17:31:55.483Z,98230.78
2022-08-03T17:34:26.523Z,98227.84
2022-08-03T17:37:05.217Z,98237.22
2022-08-03T17:39:57.683Z,98237.47
2022-08-03T17:42:29.418Z,98247.97
2022-08-03T17:45:03.541Z,98249.22
2022-08-03T17:47:42.279Z,98238.28
2022-08-03T17:50:24.875Z,98243.44
2022-08-03T17:53:15.429Z,98244.00
2022-08-03T17:56:36.162Z,98234.09
2022-08-03T17:59:09.023Z,98234.41
2022-08-03T18:02:22.322Z,98243.03
2022-08-03T18:05:16.786Z,98244.59
2022-08-03T18:07:59.071Z,98239.31
2022-08-03T18:10:35.362Z,98248.66
2022-08-03T18:13:10.798Z,98246.03
2022-08-03T18:15:45.644Z,98243.84
2022-08-03T18:18:29.305Z,98247.47
2022-08-03T18:21:06.837Z,98253.16
2022-08-03T18:23:40.408Z,98247.03
2022-08-03T18:26:11.931Z,98255.28
2022-08-03T18:28:43.300Z,98257.22
2022-08-03T18:34:16.629Z,98263.34
2022-08-03T18:36:57.224Z,98257.88
2022-08-03T18:39:28.498Z,98262.81
2022-08-03T18:41:59.532Z,98261.53
2022-08-03T18:44:53.059Z,98276.72
2022-08-03T18:47:53.155Z,98273.56
2022-08-03T18:50:35.247Z,98280.88
2022-08-03T18:53:19.700Z,98279.47
2022-08-03T18:56:02.109Z,98283.31
2022-08-03T18:58:42.293Z,98286.91
2022-08-03T19:01:59.622Z,98282.19
2022-08-03T19:04:16.884Z,98285.19
2022-08-03T19:06:50.212Z,98288.19
2022-08-03T19:09:33.022Z,98297.19
2022-08-03T19:12:12.718Z,98298.72
2022-08-03T19:15:05.314Z,98300.22
2022-08-03T19:17:36.221Z,98305.38
2022-08-03T19:20:10.392Z,98308.09
2022-08-03T19:22:45.851Z,98310.31
2022-08-03T19:25:15.259Z,98309.34
2022-08-03T19:27:47.060Z,98308.75
2022-08-03T19:30:32.726Z,98309.34
2022-08-03T19:33:02.510Z,98306.81
2022-08-03T19:35:51.322Z,98307.00
2022-08-03T19:38:28.285Z,98321.00
2022-08-03T19:41:02.285Z,98320.84
2022-08-03T19:43:49.520Z,98317.38
2022-08-03T19:46:30.250Z,98325.31
2022-08-03T19:49:04.324Z,98324.72
2022-08-03T19:52:01.797Z,98324.78
2022-08-03T19:54:29.917Z,98329.91
2022-08-03T19:57:04.788Z,98331.03
2022-08-03T19:59:49.735Z,98335.38
2022-08-03T20:02:27.047Z,98326.53
2022-08-03T20:04:57.929Z,98335.41
2022-08-03T20:07:32.398Z,98337.00
2022-08-03T20:10:18.106Z,98333.66
2022-08-03T20:12:49.130Z,98326.06
2022-08-03T20:15:30.950Z,98336.19
2022-08-03T20:18:01.618Z,98336.97
2022-08-03T20:20:34.776Z,98339.81
2022-08-03T20:23:12.436Z,98341.09
2022-08-03T20:25:57.407Z,98344.34
2022-08-03T20:28:33.480Z,98342.03
2022-08-03T20:31:03.386Z,98335.31
2022-08-03T20:33:45.759Z,98341.78
2022-08-03T20:36:18.016Z,98348.34
2022-08-03T20:38:48.449Z,98344.19
2022-08-03T20:41:19.272Z,98343.59
2022-08-03T20:43:49.783Z,98348.38
2022-08-03T20:46:32.569Z,98354.81
2022-08-03T20:49:08.034Z,98340.94
2022-08-03T20:51:49.526Z,98355.66
2022-08-03T20:54:31.088Z,98350.19
2022-08-03T20:59:52.934Z,98349.72
2022-08-03T21:02:29.531Z,98353.19
2022-08-03T21:05:03.352Z,98354.66
2022-08-03T21:08:04.301Z,98347.44
2022-08-03T21:10:35.890Z,98347.91
2022-08-03T21:13:04.063Z,98265.59
2022-08-03T21:13:07.827Z,98341.47
2022-08-03T21:13:18.204Z,98346.66
2022-08-03T21:16:11.593Z,98354.88
2022-08-03T21:18:46.863Z,98353.00
2022-08-03T21:21:19.499Z,98361.00
2022-08-03T21:23:53.291Z,98355.41
2022-08-03T21:26:26.612Z,98367.28
2022-08-03T21:29:14.201Z,98365.59
2022-08-03T21:31:44.567Z,98368.59
2022-08-03T21:34:13.796Z,98363.84
2022-08-03T21:36:43.635Z,98370.19
2022-08-03T21:39:13.730Z,98372.09
2022-08-03T21:41:43.189Z,98363.09
2022-08-03T21:44:14.017Z,98367.81
2022-08-03T21:46:45.315Z,98367.06
2022-08-03T21:50:05.609Z,98371.19
2022-08-03T21:52:07.355Z,98362.66
2022-08-03T21:54:39.001Z,98371.84
2022-08-03T21:57:19.500Z,98363.94
2022-08-03T21:59:55.294Z,98365.22
2022-08-03T22:02:30.136Z,98369.34
2022-08-03T22:05:04.893Z,98358.88
2022-08-03T22:07:35.999Z,98368.41
2022-08-03T22:10:08.318Z,98361.44
2022-08-03T22:12:37.763Z,98371.53
2022-08-03T22:15:12.045Z,98375.69
2022-08-03T22:17:56.275Z,98366.19
2022-08-03T22:20:27.096Z,98377.88
2022-08-03T22:23:01.122Z,98377.88
2022-08-03T22:25:35.015Z,98378.81
2022-08-03T22:28:08.302Z,98370.25
2022-08-03T22:30:40.503Z,98367.06
2022-08-03T22:33:12.865Z,98369.63
2022-08-03T22:35:48.094Z,98370.25
2022-08-03T22:38:18.823Z,98375.97
2022-08-03T22:40:51.235Z,98371.78
2022-08-03T22:43:24.869Z,98372.13
2022-08-03T22:46:09.715Z,98362.47
2022-08-03T22:48:41.971Z,98368.81
2022-08-03T22:51:12.032Z,98373.34
2022-08-03T22:53:41.756Z,98367.31
2022-08-03T22:56:12.129Z,98378.06
2022-08-03T22:58:41.466Z,98365.22
2022-08-03T23:01:14.319Z,98375.06
2022-08-03T23:03:59.632Z,98375.34
2022-08-03T23:06:36.412Z,98375.81
2022-08-03T23:09:09.542Z,98374.50
2022-08-03T23:11:42.856Z,98364.09
2022-08-03T23:14:17.828Z,98366.63
2022-08-03T23:16:49.014Z,98367.78
2022-08-03T23:19:25.053Z,98369.22
2022-08-03T23:22:02.432Z,98372.44
2022-08-03T23:24:37.053Z,98371.28
2022-08-03T23:27:09.247Z,98374.72
2022-08-03T23:29:43.717Z,98373.50
2022-08-03T23:32:15.423Z,98361.16
2022-08-03T23:35:03.507Z,98368.06
2022-08-03T23:37:33.512Z,98369.88
2022-08-03T23:40:28.953Z,98368.63
2022-08-03T23:42:59.400Z,98369.69
2022-08-03T23:45:29.853Z,98365.59
2022-08-03T23:48:00.442Z,98362.34
2022-08-03T23:50:36.247Z,98359.69
2022-08-03T23:53:13.377Z,98367.38
2022-08-03T23:55:59.939Z,98354.88
2022-08-03T23:58:53.452Z,98365.75
